Anderson Dam, Idaho
Current Conditions -  °F | °C
As of 5:12 AM on Tuesday 27 Jan 2015 (Local Time) from KMUO Reporting Station
Freezing Rain Freezing Rain  
Wind Chill: 22°   Ceiling: 100
Heat Index: 28°   Visibility: 0.25mi
Dew Point: 28°   Wind: 6mph
Humidity: 100%   Direction: 90°E
Pressure: 30.09"   Gusts: NA
Location:  43.2609°N, 115.781°W
Report Text: KMUO 271212Z AUTO 09005KT 1/4SM R30/1000FT -FZRA FZFG VV001 M02/M02 A3009 RMK AO2 FZRAE1158UPB05E12FZRAB12
Loading
Personal Weather Stations






























Interactive Weather Map New forecast layout! Learn more

10-Day Weather Forecast

Advertisements
Track Severe Weather on mobile